Stafford, Virginia
Current Conditions -  °F | °C
As of 8:35 AM on Thursday 23 Oct 2014 (Local Time) from KRMN Reporting Station
Overcast Overcast  
Wind Chill: 53°   Ceiling: 7500
Heat Index: 53°   Visibility: 10mi
Dew Point: 41°   Wind: 14mph
Humidity: 64%   Direction: 310°NW
Pressure: 29.97"   Gusts: 26mph
Location:  38.42°N, 77.41°W
Report Text: KRMN 231235Z AUTO 31012G23KT 10SM OVC075 12/05 A2997 RMK AO2 T01160051
Loading
Personal Weather Stations






























Interactive Weather Map
Tropical Storm Tracking
New forecast layout! Learn more

10-Day Weather Forecast

Advertisements
Track Severe Weather on mobile